sensor_id;sensor_type;location;lat;lon;timestamp;temperature;humidity
14016;DHT22;7083;48.854;9.158;2023-03-04T00:00:52;1.40;99.90
14016;DHT22;7083;48.854;9.158;2023-03-04T00:03:19;1.40;99.90
14016;DHT22;7083;48.854;9.158;2023-03-04T00:05:46;1.40;99.90
14016;DHT22;7083;48.854;9.158;2023-03-04T00:08:12;1.30;99.90
14016;DHT22;7083;48.854;9.158;2023-03-04T00:10:41;1.30;99.90
14016;DHT22;7083;48.854;9.158;2023-03-04T00:13:07;1.30;99.90
14016;DHT22;7083;48.854;9.158;2023-03-04T00:15:34;1.20;99.90
14016;DHT22;7083;48.854;9.158;2023-03-04T00:18:01;1.30;99.90
14016;DHT22;7083;48.854;9.158;2023-03-04T00:20:27;1.20;99.90
14016;DHT22;7083;48.854;9.158;2023-03-04T00:22:54;1.30;99.90
14016;DHT22;7083;48.854;9.158;2023-03-04T00:25:21;1.30;99.90
14016;DHT22;7083;48.854;9.158;2023-03-04T00:27:49;1.20;99.90
14016;DHT22;7083;48.854;9.158;2023-03-04T00:30:16;1.10;99.90
14016;DHT22;7083;48.854;9.158;2023-03-04T00:32:43;1.10;99.90
14016;DHT22;7083;48.854;9.158;2023-03-04T00:35:09;1.00;99.90
14016;DHT22;7083;48.854;9.158;2023-03-04T00:37:36;0.90;99.90
14016;DHT22;7083;48.854;9.158;2023-03-04T00:40:04;0.80;99.90
14016;DHT22;7083;48.854;9.158;2023-03-04T00:42:31;0.80;99.90
14016;DHT22;7083;48.854;9.158;2023-03-04T00:44:59;0.70;99.90
14016;DHT22;7083;48.854;9.158;2023-03-04T00:47:25;0.60;99.90
14016;DHT22;7083;48.854;9.158;2023-03-04T00:49:52;0.50;99.90
14016;DHT22;7083;48.854;9.158;2023-03-04T00:52:19;0.50;99.90
14016;DHT22;7083;48.854;9.158;2023-03-04T00:54:45;0.50;99.90
14016;DHT22;7083;48.854;9.158;2023-03-04T00:57:12;0.50;99.90
14016;DHT22;7083;48.854;9.158;2023-03-04T00:59:39;0.50;99.90
14016;DHT22;7083;48.854;9.158;2023-03-04T01:02:09;0.50;99.90
14016;DHT22;7083;48.854;9.158;2023-03-04T01:04:36;0.50;99.90
14016;DHT22;7083;48.854;9.158;2023-03-04T01:07:03;0.50;99.90
14016;DHT22;7083;48.854;9.158;2023-03-04T01:09:30;0.50;99.90
14016;DHT22;7083;48.854;9.158;2023-03-04T01:11:57;0.60;99.90
14016;DHT22;7083;48.854;9.158;2023-03-04T01:14:24;0.70;99.90
14016;DHT22;7083;48.854;9.158;2023-03-04T01:16:51;0.80;99.90
14016;DHT22;7083;48.854;9.158;2023-03-04T01:19:19;0.80;99.90
14016;DHT22;7083;48.854;9.158;2023-03-04T01:21:46;0.70;99.90
14016;DHT22;7083;48.854;9.158;2023-03-04T01:24:12;0.70;99.90
14016;DHT22;7083;48.854;9.158;2023-03-04T01:26:39;0.70;99.90
14016;DHT22;7083;48.854;9.158;2023-03-04T01:29:06;0.60;99.90
14016;DHT22;7083;48.854;9.158;2023-03-04T01:31:33;0.60;99.90
14016;DHT22;7083;48.854;9.158;2023-03-04T01:33:59;0.50;99.90
14016;DHT22;7083;48.854;9.158;2023-03-04T01:36:27;0.50;99.90
14016;DHT22;7083;48.854;9.158;2023-03-04T01:38:55;0.50;99.90
14016;DHT22;7083;48.854;9.158;2023-03-04T01:41:24;0.40;99.90
14016;DHT22;7083;48.854;9.158;2023-03-04T01:43:54;0.50;99.90
14016;DHT22;7083;48.854;9.158;2023-03-04T01:46:21;0.50;99.90
14016;DHT22;7083;48.854;9.158;2023-03-04T01:48:48;0.50;99.90
14016;DHT22;7083;48.854;9.158;2023-03-04T01:51:17;0.40;99.90
14016;DHT22;7083;48.854;9.158;2023-03-04T01:53:47;0.40;99.90
14016;DHT22;7083;48.854;9.158;2023-03-04T01:56:23;0.30;99.90
14016;DHT22;7083;48.854;9.158;2023-03-04T01:59:10;0.30;99.90
14016;DHT22;7083;48.854;9.158;2023-03-04T02:01:38;0.30;99.90
14016;DHT22;7083;48.854;9.158;2023-03-04T02:04:06;0.30;99.90
14016;DHT22;7083;48.854;9.158;2023-03-04T02:06:33;0.30;99.90
14016;DHT22;7083;48.854;9.158;2023-03-04T02:09:03;0.30;99.90
14016;DHT22;7083;48.854;9.158;2023-03-04T02:11:30;0.30;99.90
14016;DHT22;7083;48.854;9.158;2023-03-04T02:13:57;0.30;99.90
14016;DHT22;7083;48.854;9.158;2023-03-04T02:16:24;0.20;99.90
14016;DHT22;7083;48.854;9.158;2023-03-04T02:18:51;0.10;99.90
14016;DHT22;7083;48.854;9.158;2023-03-04T02:21:22;0.10;99.90
14016;DHT22;7083;48.854;9.158;2023-03-04T02:24:01;0.10;99.90
14016;DHT22;7083;48.854;9.158;2023-03-04T02:26:30;0.10;99.90
14016;DHT22;7083;48.854;9.158;2023-03-04T02:28:59;0.10;99.90
14016;DHT22;7083;48.854;9.158;2023-03-04T02:31:29;0.10;99.90
14016;DHT22;7083;48.854;9.158;2023-03-04T02:34:00;0.10;99.90
14016;DHT22;7083;48.854;9.158;2023-03-04T02:36:27;0.20;99.90
14016;DHT22;7083;48.854;9.158;2023-03-04T02:38:55;0.10;99.90
14016;DHT22;7083;48.854;9.158;2023-03-04T02:41:27;0.10;99.90
14016;DHT22;7083;48.854;9.158;2023-03-04T02:43:56;0.00;99.90
14016;DHT22;7083;48.854;9.158;2023-03-04T02:46:23;0.00;99.90
14016;DHT22;7083;48.854;9.158;2023-03-04T02:48:50;0.00;99.90
14016;DHT22;7083;48.854;9.158;2023-03-04T02:51:17;0.00;99.90
14016;DHT22;7083;48.854;9.158;2023-03-04T02:53:44;0.00;99.90
14016;DHT22;7083;48.854;9.158;2023-03-04T02:56:11;-0.10;99.90
14016;DHT22;7083;48.854;9.158;2023-03-04T02:58:38;-0.10;99.90
14016;DHT22;7083;48.854;9.158;2023-03-04T03:01:07;-0.10;99.90
14016;DHT22;7083;48.854;9.158;2023-03-04T03:03:34;-0.20;99.90
14016;DHT22;7083;48.854;9.158;2023-03-04T03:06:00;-0.30;99.90
14016;DHT22;7083;48.854;9.158;2023-03-04T03:08:27;-0.40;99.90
14016;DHT22;7083;48.854;9.158;2023-03-04T03:10:54;-0.40;99.90
14016;DHT22;7083;48.854;9.158;2023-03-04T03:13:21;-0.50;99.90
14016;DHT22;7083;48.854;9.158;2023-03-04T03:15:47;-0.40;99.90
14016;DHT22;7083;48.854;9.158;2023-03-04T03:18:15;-0.40;99.90
14016;DHT22;7083;48.854;9.158;2023-03-04T03:20:42;-0.40;99.90
14016;DHT22;7083;48.854;9.158;2023-03-04T03:23:09;-0.40;99.90
14016;DHT22;7083;48.854;9.158;2023-03-04T03:25:36;-0.40;99.90
14016;DHT22;7083;48.854;9.158;2023-03-04T03:28:02;-0.50;99.90
14016;DHT22;7083;48.854;9.158;2023-03-04T03:30:29;1.50;99.90
14016;DHT22;7083;48.854;9.158;2023-03-04T03:32:56;-0.50;99.90
14016;DHT22;7083;48.854;9.158;2023-03-04T03:35:24;1.80;99.90
14016;DHT22;7083;48.854;9.158;2023-03-04T03:37:51;-0.60;99.90
14016;DHT22;7083;48.854;9.158;2023-03-04T03:40:17;-0.60;99.90
14016;DHT22;7083;48.854;9.158;2023-03-04T03:42:44;-0.70;99.90
14016;DHT22;7083;48.854;9.158;2023-03-04T03:45:11;-0.70;99.90
14016;DHT22;7083;48.854;9.158;2023-03-04T03:47:38;-0.70;99.90
14016;DHT22;7083;48.854;9.158;2023-03-04T03:50:05;-0.70;99.90
14016;DHT22;7083;48.854;9.158;2023-03-04T03:52:33;-0.70;99.90
14016;DHT22;7083;48.854;9.158;2023-03-04T03:55:00;-0.80;99.90
14016;DHT22;7083;48.854;9.158;2023-03-04T03:57:27;-0.90;99.90
14016;DHT22;7083;48.854;9.158;2023-03-04T03:59:54;-0.90;99.90
14016;DHT22;7083;48.854;9.158;2023-03-04T04:02:21;-0.90;99.90
14016;DHT22;7083;48.854;9.158;2023-03-04T04:04:49;-0.90;99.90
14016;DHT22;7083;48.854;9.158;2023-03-04T04:07:16;-0.90;99.90
14016;DHT22;7083;48.854;9.158;2023-03-04T04:09:44;-0.90;99.90
14016;DHT22;7083;48.854;9.158;2023-03-04T04:12:13;-0.90;99.90
14016;DHT22;7083;48.854;9.158;2023-03-04T04:14:41;-1.00;99.90
14016;DHT22;7083;48.854;9.158;2023-03-04T04:17:09;-1.00;99.90
14016;DHT22;7083;48.854;9.158;2023-03-04T04:19:36;-1.00;99.90
14016;DHT22;7083;48.854;9.158;2023-03-04T04:22:05;-1.10;99.90
14016;DHT22;7083;48.854;9.158;2023-03-04T04:24:33;-1.10;99.90
14016;DHT22;7083;48.854;9.158;2023-03-04T04:27:01;-1.20;99.90
14016;DHT22;7083;48.854;9.158;2023-03-04T04:29:29;-1.20;99.90
14016;DHT22;7083;48.854;9.158;2023-03-04T04:31:55;-1.30;99.90
14016;DHT22;7083;48.854;9.158;2023-03-04T04:34:23;-1.30;99.90
14016;DHT22;7083;48.854;9.158;2023-03-04T04:36:49;-1.30;99.90
14016;DHT22;7083;48.854;9.158;2023-03-04T04:39:16;-1.20;99.90
14016;DHT22;7083;48.854;9.158;2023-03-04T04:41:43;-1.30;99.90
14016;DHT22;7083;48.854;9.158;2023-03-04T04:44:12;-1.20;99.90
14016;DHT22;7083;48.854;9.158;2023-03-04T04:46:39;-1.30;99.90
14016;DHT22;7083;48.854;9.158;2023-03-04T04:49:07;-1.40;99.90
14016;DHT22;7083;48.854;9.158;2023-03-04T04:51:35;-1.40;99.90
14016;DHT22;7083;48.854;9.158;2023-03-04T04:54:02;-1.50;99.90
14016;DHT22;7083;48.854;9.158;2023-03-04T04:56:29;-1.50;99.90
14016;DHT22;7083;48.854;9.158;2023-03-04T04:58:58;-1.50;99.90
14016;DHT22;7083;48.854;9.158;2023-03-04T05:01:26;-1.50;99.90
14016;DHT22;7083;48.854;9.158;2023-03-04T05:03:53;-1.60;99.90
14016;DHT22;7083;48.854;9.158;2023-03-04T05:06:21;-1.50;99.90
14016;DHT22;7083;48.854;9.158;2023-03-04T05:08:48;-1.50;99.90
14016;DHT22;7083;48.854;9.158;2023-03-04T05:11:15;-1.50;99.90
14016;DHT22;7083;48.854;9.158;2023-03-04T05:13:43;-1.50;99.90
14016;DHT22;7083;48.854;9.158;2023-03-04T05:16:10;-1.60;99.90
14016;DHT22;7083;48.854;9.158;2023-03-04T05:18:39;-1.70;99.90
14016;DHT22;7083;48.854;9.158;2023-03-04T05:21:06;-1.70;99.90
14016;DHT22;7083;48.854;9.158;2023-03-04T05:23:35;-1.80;99.90
14016;DHT22;7083;48.854;9.158;2023-03-04T05:26:04;-1.80;99.90
14016;DHT22;7083;48.854;9.158;2023-03-04T05:28:32;-1.80;99.90
14016;DHT22;7083;48.854;9.158;2023-03-04T05:30:59;-1.90;99.90
14016;DHT22;7083;48.854;9.158;2023-03-04T05:33:26;-1.90;99.90
14016;DHT22;7083;48.854;9.158;2023-03-04T05:35:54;-1.90;99.90
14016;DHT22;7083;48.854;9.158;2023-03-04T05:38:22;-1.80;99.90
14016;DHT22;7083;48.854;9.158;2023-03-04T05:40:55;-1.80;99.90
14016;DHT22;7083;48.854;9.158;2023-03-04T05:43:22;-1.80;99.90
14016;DHT22;7083;48.854;9.158;2023-03-04T05:45:49;-1.80;99.90
14016;DHT22;7083;48.854;9.158;2023-03-04T05:48:16;-1.80;99.90
14016;DHT22;7083;48.854;9.158;2023-03-04T05:50:42;-1.80;99.90
14016;DHT22;7083;48.854;9.158;2023-03-04T05:53:10;-1.90;99.90
14016;DHT22;7083;48.854;9.158;2023-03-04T05:55:37;-1.90;99.90
14016;DHT22;7083;48.854;9.158;2023-03-04T05:58:04;-1.90;99.90
14016;DHT22;7083;48.854;9.158;2023-03-04T06:00:30;-2.00;99.90
14016;DHT22;7083;48.854;9.158;2023-03-04T06:02:57;-2.00;99.90
14016;DHT22;7083;48.854;9.158;2023-03-04T06:05:24;-2.10;99.90
14016;DHT22;7083;48.854;9.158;2023-03-04T06:07:50;-2.10;99.90
14016;DHT22;7083;48.854;9.158;2023-03-04T06:10:19;-2.10;99.90
14016;DHT22;7083;48.854;9.158;2023-03-04T06:12:45;-2.00;99.90
14016;DHT22;7083;48.854;9.158;2023-03-04T06:15:12;-2.00;99.90
14016;DHT22;7083;48.854;9.158;2023-03-04T06:17:41;-2.00;99.90
14016;DHT22;7083;48.854;9.158;2023-03-04T06:20:10;-2.00;99.90
14016;DHT22;7083;48.854;9.158;2023-03-04T06:22:37;-2.10;99.90
14016;DHT22;7083;48.854;9.158;2023-03-04T06:25:05;-2.10;99.90
14016;DHT22;7083;48.854;9.158;2023-03-04T06:27:33;-2.10;99.90
14016;DHT22;7083;48.854;9.158;2023-03-04T06:30:00;-2.00;99.90
14016;DHT22;7083;48.854;9.158;2023-03-04T06:32:27;-2.00;99.90
14016;DHT22;7083;48.854;9.158;2023-03-04T06:34:54;-2.00;99.90
14016;DHT22;7083;48.854;9.158;2023-03-04T06:37:21;-2.00;99.90
14016;DHT22;7083;48.854;9.158;2023-03-04T06:39:49;-1.90;99.90
14016;DHT22;7083;48.854;9.158;2023-03-04T06:42:16;-1.90;99.90
14016;DHT22;7083;48.854;9.158;2023-03-04T06:44:44;-1.90;99.90
14016;DHT22;7083;48.854;9.158;2023-03-04T06:47:10;-1.90;99.90
14016;DHT22;7083;48.854;9.158;2023-03-04T06:49:37;-1.90;99.90
14016;DHT22;7083;48.854;9.158;2023-03-04T06:52:04;-1.80;99.90
14016;DHT22;7083;48.854;9.158;2023-03-04T06:54:31;-1.80;99.90
14016;DHT22;7083;48.854;9.158;2023-03-04T06:56:57;-1.80;99.90
14016;DHT22;7083;48.854;9.158;2023-03-04T06:59:24;-1.70;99.90
14016;DHT22;7083;48.854;9.158;2023-03-04T07:01:52;-1.60;99.90
14016;DHT22;7083;48.854;9.158;2023-03-04T07:04:19;-1.50;99.90
14016;DHT22;7083;48.854;9.158;2023-03-04T07:06:47;-1.40;99.90
14016;DHT22;7083;48.854;9.158;2023-03-04T07:09:14;-1.40;99.90
14016;DHT22;7083;48.854;9.158;2023-03-04T07:11:40;-1.30;99.90
14016;DHT22;7083;48.854;9.158;2023-03-04T07:14:07;-1.10;99.90
14016;DHT22;7083;48.854;9.158;2023-03-04T07:16:34;-1.00;99.90
14016;DHT22;7083;48.854;9.158;2023-03-04T07:19:02;-0.90;99.90
14016;DHT22;7083;48.854;9.158;2023-03-04T07:21:28;-0.70;99.90
14016;DHT22;7083;48.854;9.158;2023-03-04T07:23:55;-0.60;99.90
14016;DHT22;7083;48.854;9.158;2023-03-04T07:26:22;-0.50;99.90
14016;DHT22;7083;48.854;9.158;2023-03-04T07:28:49;-0.40;99.90
14016;DHT22;7083;48.854;9.158;2023-03-04T07:31:20;-0.30;99.90
14016;DHT22;7083;48.854;9.158;2023-03-04T07:33:47;-0.20;99.90
14016;DHT22;7083;48.854;9.158;2023-03-04T07:36:16;-0.10;99.90
14016;DHT22;7083;48.854;9.158;2023-03-04T07:38:44;0.00;99.90
14016;DHT22;7083;48.854;9.158;2023-03-04T07:41:11;0.10;99.90
14016;DHT22;7083;48.854;9.158;2023-03-04T07:43:38;0.20;99.90
14016;DHT22;7083;48.854;9.158;2023-03-04T07:46:05;0.20;99.90
14016;DHT22;7083;48.854;9.158;2023-03-04T07:48:32;0.30;99.90
14016;DHT22;7083;48.854;9.158;2023-03-04T07:51:07;0.40;99.90
14016;DHT22;7083;48.854;9.158;2023-03-04T07:53:36;0.40;99.90
14016;DHT22;7083;48.854;9.158;2023-03-04T07:56:04;0.50;99.90
14016;DHT22;7083;48.854;9.158;2023-03-04T07:58:31;0.50;99.90
14016;DHT22;7083;48.854;9.158;2023-03-04T08:00:58;0.50;99.90
14016;DHT22;7083;48.854;9.158;2023-03-04T08:03:25;0.50;99.90
14016;DHT22;7083;48.854;9.158;2023-03-04T08:05:54;0.60;99.90
14016;DHT22;7083;48.854;9.158;2023-03-04T08:08:20;0.70;99.90
14016;DHT22;7083;48.854;9.158;2023-03-04T08:10:48;0.80;99.90
14016;DHT22;7083;48.854;9.158;2023-03-04T08:13:15;0.90;99.90
14016;DHT22;7083;48.854;9.158;2023-03-04T08:15:42;0.90;99.90
14016;DHT22;7083;48.854;9.158;2023-03-04T08:18:08;1.00;99.90
14016;DHT22;7083;48.854;9.158;2023-03-04T08:20:35;1.00;99.90
14016;DHT22;7083;48.854;9.158;2023-03-04T08:23:02;1.00;99.90
14016;DHT22;7083;48.854;9.158;2023-03-04T08:25:29;1.10;99.90
14016;DHT22;7083;48.854;9.158;2023-03-04T08:27:58;1.10;99.90
14016;DHT22;7083;48.854;9.158;2023-03-04T08:30:24;1.10;99.90
14016;DHT22;7083;48.854;9.158;2023-03-04T08:32:51;1.10;99.90
14016;DHT22;7083;48.854;9.158;2023-03-04T08:35:18;1.10;99.90
14016;DHT22;7083;48.854;9.158;2023-03-04T08:37:44;1.20;99.90
14016;DHT22;7083;48.854;9.158;2023-03-04T08:40:12;1.20;99.90
14016;DHT22;7083;48.854;9.158;2023-03-04T08:42:39;1.30;99.90
14016;DHT22;7083;48.854;9.158;2023-03-04T08:45:09;1.30;99.90
14016;DHT22;7083;48.854;9.158;2023-03-04T08:47:36;1.40;99.90
14016;DHT22;7083;48.854;9.158;2023-03-04T08:50:04;1.50;99.90
14016;DHT22;7083;48.854;9.158;2023-03-04T08:52:31;1.60;99.90
14016;DHT22;7083;48.854;9.158;2023-03-04T08:54:58;1.60;99.90
14016;DHT22;7083;48.854;9.158;2023-03-04T08:57:25;1.70;99.90
14016;DHT22;7083;48.854;9.158;2023-03-04T08:59:51;1.70;99.90
14016;DHT22;7083;48.854;9.158;2023-03-04T09:02:19;1.70;99.90
14016;DHT22;7083;48.854;9.158;2023-03-04T09:04:46;1.70;99.90
14016;DHT22;7083;48.854;9.158;2023-03-04T09:07:13;1.70;99.90
14016;DHT22;7083;48.854;9.158;2023-03-04T09:09:40;1.80;99.90
14016;DHT22;7083;48.854;9.158;2023-03-04T09:12:06;1.80;99.90
14016;DHT22;7083;48.854;9.158;2023-03-04T09:14:33;3.70;99.90
14016;DHT22;7083;48.854;9.158;2023-03-04T09:17:00;1.80;99.90
14016;DHT22;7083;48.854;9.158;2023-03-04T09:19:29;1.90;99.90
14016;DHT22;7083;48.854;9.158;2023-03-04T09:21:56;2.00;99.90
14016;DHT22;7083;48.854;9.158;2023-03-04T09:24:23;2.10;99.90
14016;DHT22;7083;48.854;9.158;2023-03-04T09:26:51;2.20;99.90
14016;DHT22;7083;48.854;9.158;2023-03-04T09:29:18;2.30;99.90
14016;DHT22;7083;48.854;9.158;2023-03-04T09:31:44;2.30;99.90
14016;DHT22;7083;48.854;9.158;2023-03-04T09:34:11;2.30;99.90
14016;DHT22;7083;48.854;9.158;2023-03-04T09:36:39;2.40;99.90
14016;DHT22;7083;48.854;9.158;2023-03-04T09:39:06;2.50;99.90
14016;DHT22;7083;48.854;9.158;2023-03-04T09:41:36;2.60;99.90
14016;DHT22;7083;48.854;9.158;2023-03-04T09:44:11;2.80;99.90
14016;DHT22;7083;48.854;9.158;2023-03-04T09:46:39;2.90;99.90
14016;DHT22;7083;48.854;9.158;2023-03-04T09:49:08;3.00;99.90
14016;DHT22;7083;48.854;9.158;2023-03-04T09:51:46;3.20;99.90
14016;DHT22;7083;48.854;9.158;2023-03-04T09:54:20;3.30;99.90
14016;DHT22;7083;48.854;9.158;2023-03-04T09:56:50;3.30;99.90
14016;DHT22;7083;48.854;9.158;2023-03-04T09:59:23;3.40;99.90
14016;DHT22;7083;48.854;9.158;2023-03-04T10:01:53;3.40;99.90
14016;DHT22;7083;48.854;9.158;2023-03-04T10:04:28;3.50;99.90
14016;DHT22;7083;48.854;9.158;2023-03-04T10:06:57;3.70;99.90
14016;DHT22;7083;48.854;9.158;2023-03-04T10:09:26;3.70;99.90
14016;DHT22;7083;48.854;9.158;2023-03-04T10:12:00;3.80;99.90
14016;DHT22;7083;48.854;9.158;2023-03-04T10:14:33;4.10;99.10
14016;DHT22;7083;48.854;9.158;2023-03-04T10:17:05;4.10;97.90
14016;DHT22;7083;48.854;9.158;2023-03-04T10:19:48;4.10;98.60
14016;DHT22;7083;48.854;9.158;2023-03-04T10:22:24;4.20;97.50
14016;DHT22;7083;48.854;9.158;2023-03-04T10:24:53;4.30;97.10
14016;DHT22;7083;48.854;9.158;2023-03-04T10:27:21;4.40;96.40
14016;DHT22;7083;48.854;9.158;2023-03-04T10:29:49;4.50;94.90
14016;DHT22;7083;48.854;9.158;2023-03-04T10:32:18;4.50;95.30
14016;DHT22;7083;48.854;9.158;2023-03-04T10:34:45;4.50;95.40
14016;DHT22;7083;48.854;9.158;2023-03-04T10:37:12;4.60;94.50
14016;DHT22;7083;48.854;9.158;2023-03-04T10:39:42;4.60;94.00
14016;DHT22;7083;48.854;9.158;2023-03-04T10:42:23;4.50;94.10
14016;DHT22;7083;48.854;9.158;2023-03-04T10:44:53;4.50;94.20
14016;DHT22;7083;48.854;9.158;2023-03-04T10:47:23;4.50;93.90
14016;DHT22;7083;48.854;9.158;2023-03-04T10:49:51;4.40;94.00
14016;DHT22;7083;48.854;9.158;2023-03-04T10:52:26;4.50;94.30
14016;DHT22;7083;48.854;9.158;2023-03-04T10:54:56;4.60;93.70
14016;DHT22;7083;48.854;9.158;2023-03-04T10:57:27;4.50;93.80
14016;DHT22;7083;48.854;9.158;2023-03-04T10:59:57;4.50;94.30
14016;DHT22;7083;48.854;9.158;2023-03-04T11:02:26;4.50;94.30
14016;DHT22;7083;48.854;9.158;2023-03-04T11:04:56;4.60;93.90
14016;DHT22;7083;48.854;9.158;2023-03-04T11:07:25;4.60;93.80
14016;DHT22;7083;48.854;9.158;2023-03-04T11:09:52;4.50;93.90
14016;DHT22;7083;48.854;9.158;2023-03-04T11:12:30;4.60;93.20
14016;DHT22;7083;48.854;9.158;2023-03-04T11:14:57;4.60;92.70
14016;DHT22;7083;48.854;9.158;2023-03-04T11:17:25;4.50;92.60
14016;DHT22;7083;48.854;9.158;2023-03-04T11:19:55;4.50;92.80
14016;DHT22;7083;48.854;9.158;2023-03-04T11:22:24;4.50;92.80
14016;DHT22;7083;48.854;9.158;2023-03-04T11:24:58;4.40;92.80
14016;DHT22;7083;48.854;9.158;2023-03-04T11:27:41;4.40;93.10
14016;DHT22;7083;48.854;9.158;2023-03-04T11:30:25;4.30;93.20
14016;DHT22;7083;48.854;9.158;2023-03-04T11:32:59;4.50;93.40
14016;DHT22;7083;48.854;9.158;2023-03-04T11:35:33;4.20;93.80
14016;DHT22;7083;48.854;9.158;2023-03-04T11:38:05;4.20;93.50
14016;DHT22;7083;48.854;9.158;2023-03-04T11:40:38;4.20;93.10
14016;DHT22;7083;48.854;9.158;2023-03-04T11:43:13;4.10;93.30
14016;DHT22;7083;48.854;9.158;2023-03-04T11:45:54;4.10;93.40
14016;DHT22;7083;48.854;9.158;2023-03-04T11:48:36;4.10;93.00
14016;DHT22;7083;48.854;9.158;2023-03-04T11:51:10;4.10;93.30
14016;DHT22;7083;48.854;9.158;2023-03-04T11:53:51;4.00;93.90
14016;DHT22;7083;48.854;9.158;2023-03-04T11:56:29;4.00;93.60
14016;DHT22;7083;48.854;9.158;2023-03-04T11:59:18;4.10;93.50
14016;DHT22;7083;48.854;9.158;2023-03-04T12:01:54;4.00;93.40
14016;DHT22;7083;48.854;9.158;2023-03-04T12:04:36;4.00;93.60
14016;DHT22;7083;48.854;9.158;2023-03-04T12:07:15;4.00;93.60
14016;DHT22;7083;48.854;9.158;2023-03-04T12:09:54;3.90;94.00
14016;DHT22;7083;48.854;9.158;2023-03-04T12:12:33;3.90;94.40
14016;DHT22;7083;48.854;9.158;2023-03-04T12:15:13;3.90;94.10
14016;DHT22;7083;48.854;9.158;2023-03-04T12:17:51;3.80;94.40
14016;DHT22;7083;48.854;9.158;2023-03-04T12:20:29;3.90;93.70
14016;DHT22;7083;48.854;9.158;2023-03-04T12:23:09;3.90;93.50
14016;DHT22;7083;48.854;9.158;2023-03-04T12:25:42;3.90;93.80
14016;DHT22;7083;48.854;9.158;2023-03-04T12:28:36;3.90;93.60
14016;DHT22;7083;48.854;9.158;2023-03-04T12:31:15;3.90;93.50
14016;DHT22;7083;48.854;9.158;2023-03-04T12:34:00;3.80;93.70
14016;DHT22;7083;48.854;9.158;2023-03-04T12:36:34;3.80;94.10
14016;DHT22;7083;48.854;9.158;2023-03-04T12:39:15;3.90;93.90
14016;DHT22;7083;48.854;9.158;2023-03-04T12:41:53;3.80;93.80
14016;DHT22;7083;48.854;9.158;2023-03-04T12:44:21;3.80;94.10
14016;DHT22;7083;48.854;9.158;2023-03-04T12:47:10;3.80;94.20
14016;DHT22;7083;48.854;9.158;2023-03-04T12:49:46;3.70;94.80
14016;DHT22;7083;48.854;9.158;2023-03-04T12:52:23;3.80;94.30
14016;DHT22;7083;48.854;9.158;2023-03-04T12:54:56;3.80;94.40
14016;DHT22;7083;48.854;9.158;2023-03-04T12:57:24;3.80;94.40
14016;DHT22;7083;48.854;9.158;2023-03-04T12:59:57;3.90;93.90
14016;DHT22;7083;48.854;9.158;2023-03-04T13:05:37;3.80;93.60
14016;DHT22;7083;48.854;9.158;2023-03-04T13:08:13;3.90;93.30
14016;DHT22;7083;48.854;9.158;2023-03-04T13:10:40;3.70;93.70
14016;DHT22;7083;48.854;9.158;2023-03-04T13:13:32;3.70;93.70
14016;DHT22;7083;48.854;9.158;2023-03-04T13:16:02;3.80;93.40
14016;DHT22;7083;48.854;9.158;2023-03-04T13:18:31;3.90;93.10
14016;DHT22;7083;48.854;9.158;2023-03-04T13:21:19;3.80;93.30
14016;DHT22;7083;48.854;9.158;2023-03-04T13:23:47;3.80;93.80
14016;DHT22;7083;48.854;9.158;2023-03-04T13:26:20;3.80;93.00
14016;DHT22;7083;48.854;9.158;2023-03-04T13:28:52;3.90;92.90
14016;DHT22;7083;48.854;9.158;2023-03-04T13:31:22;3.90;92.80
14016;DHT22;7083;48.854;9.158;2023-03-04T13:33:57;4.00;93.00
14016;DHT22;7083;48.854;9.158;2023-03-04T13:39:29;3.90;92.90
14016;DHT22;7083;48.854;9.158;2023-03-04T13:41:56;3.90;93.30
14016;DHT22;7083;48.854;9.158;2023-03-04T13:47:15;3.90;92.80
14016;DHT22;7083;48.854;9.158;2023-03-04T13:49:42;3.90;92.80
14016;DHT22;7083;48.854;9.158;2023-03-04T13:52:34;3.90;93.20
14016;DHT22;7083;48.854;9.158;2023-03-04T13:55:34;3.80;93.00
14016;DHT22;7083;48.854;9.158;2023-03-04T13:58:11;3.90;92.70
14016;DHT22;7083;48.854;9.158;2023-03-04T14:00:49;3.80;92.90
14016;DHT22;7083;48.854;9.158;2023-03-04T14:03:22;3.80;93.00
14016;DHT22;7083;48.854;9.158;2023-03-04T14:06:08;3.80;93.20
14016;DHT22;7083;48.854;9.158;2023-03-04T14:08:36;3.70;93.70
14016;DHT22;7083;48.854;9.158;2023-03-04T14:11:03;3.70;93.90
14016;DHT22;7083;48.854;9.158;2023-03-04T14:13:30;3.60;93.70
14016;DHT22;7083;48.854;9.158;2023-03-04T14:15:58;3.50;94.00
14016;DHT22;7083;48.854;9.158;2023-03-04T14:18:25;3.50;93.80
14016;DHT22;7083;48.854;9.158;2023-03-04T14:20:55;3.50;93.90
14016;DHT22;7083;48.854;9.158;2023-03-04T14:23:26;3.40;94.10
14016;DHT22;7083;48.854;9.158;2023-03-04T14:26:05;3.40;94.30
14016;DHT22;7083;48.854;9.158;2023-03-04T14:28:32;3.40;94.30
14016;DHT22;7083;48.854;9.158;2023-03-04T14:30:59;3.40;94.60
14016;DHT22;7083;48.854;9.158;2023-03-04T14:33:28;3.30;94.70
14016;DHT22;7083;48.854;9.158;2023-03-04T14:35:59;3.30;94.80
14016;DHT22;7083;48.854;9.158;2023-03-04T14:38:28;3.30;95.00
14016;DHT22;7083;48.854;9.158;2023-03-04T14:40:59;3.30;95.20
14016;DHT22;7083;48.854;9.158;2023-03-04T14:43:29;3.40;94.90
14016;DHT22;7083;48.854;9.158;2023-03-04T14:46:00;3.30;94.90
14016;DHT22;7083;48.854;9.158;2023-03-04T14:48:30;3.30;95.00
14016;DHT22;7083;48.854;9.158;2023-03-04T14:50:59;3.40;94.60
14016;DHT22;7083;48.854;9.158;2023-03-04T14:53:27;3.30;94.70
14016;DHT22;7083;48.854;9.158;2023-03-04T14:55:55;3.30;95.10
14016;DHT22;7083;48.854;9.158;2023-03-04T14:58:24;3.30;95.40
14016;DHT22;7083;48.854;9.158;2023-03-04T15:01:05;3.20;95.40
14016;DHT22;7083;48.854;9.158;2023-03-04T15:03:32;3.20;95.60
14016;DHT22;7083;48.854;9.158;2023-03-04T15:06:07;3.30;95.80
14016;DHT22;7083;48.854;9.158;2023-03-04T15:08:40;3.20;95.80
14016;DHT22;7083;48.854;9.158;2023-03-04T15:11:07;3.20;95.90
14016;DHT22;7083;48.854;9.158;2023-03-04T15:13:40;3.20;95.80
14016;DHT22;7083;48.854;9.158;2023-03-04T15:16:10;3.20;95.90
14016;DHT22;7083;48.854;9.158;2023-03-04T15:18:37;3.30;95.50
14016;DHT22;7083;48.854;9.158;2023-03-04T15:21:05;3.20;95.80
14016;DHT22;7083;48.854;9.158;2023-03-04T15:23:51;3.20;96.00
14016;DHT22;7083;48.854;9.158;2023-03-04T15:26:17;3.20;96.40
14016;DHT22;7083;48.854;9.158;2023-03-04T15:28:44;3.20;96.30
14016;DHT22;7083;48.854;9.158;2023-03-04T15:31:16;3.10;96.30
14016;DHT22;7083;48.854;9.158;2023-03-04T15:33:43;3.00;96.30
14016;DHT22;7083;48.854;9.158;2023-03-04T15:36:13;3.00;96.60
14016;DHT22;7083;48.854;9.158;2023-03-04T15:38:40;3.10;96.90
14016;DHT22;7083;48.854;9.158;2023-03-04T15:41:10;3.00;96.80
14016;DHT22;7083;48.854;9.158;2023-03-04T15:43:37;3.00;96.90
14016;DHT22;7083;48.854;9.158;2023-03-04T15:46:04;3.00;97.10
14016;DHT22;7083;48.854;9.158;2023-03-04T15:48:32;3.00;97.20
14016;DHT22;7083;48.854;9.158;2023-03-04T15:51:00;3.00;97.00
14016;DHT22;7083;48.854;9.158;2023-03-04T15:53:30;3.00;97.00
14016;DHT22;7083;48.854;9.158;2023-03-04T15:55:58;2.90;97.10
14016;DHT22;7083;48.854;9.158;2023-03-04T15:58:26;2.90;97.30
14016;DHT22;7083;48.854;9.158;2023-03-04T16:00:54;2.90;97.40
14016;DHT22;7083;48.854;9.158;2023-03-04T16:03:21;2.90;97.50
14016;DHT22;7083;48.854;9.158;2023-03-04T16:05:50;2.90;97.80
14016;DHT22;7083;48.854;9.158;2023-03-04T16:08:19;2.90;97.90
14016;DHT22;7083;48.854;9.158;2023-03-04T16:10:46;2.90;97.90
14016;DHT22;7083;48.854;9.158;2023-03-04T16:13:15;2.90;98.00
14016;DHT22;7083;48.854;9.158;2023-03-04T16:15:42;2.90;98.20
14016;DHT22;7083;48.854;9.158;2023-03-04T16:18:10;2.90;98.30
14016;DHT22;7083;48.854;9.158;2023-03-04T16:20:38;2.90;98.30